Canton, Kansas
Current Conditions -  °F | °C
As of 12:55 PM on Friday 24 Oct 2014 (Local Time) from KEWK Reporting Station
Clear Clear  
Wind Chill: 72°   Ceiling: Unl
Heat Index: 72°   Visibility: 10mi
Dew Point: 61°   Wind: 13mph
Humidity: 69%   Direction: 230°SW
Pressure: 30.07"   Gusts: NA
Location:  38.39°N, 97.43°W
Report Text: KEWK 241755Z AUTO 23011KT 10SM CLR 22/16 A3007 RMK AO1 10220 20130 57003
Loading
Personal Weather Stations






























Interactive Weather Map
Tropical Storm Tracking
New forecast layout! Learn more

10-Day Weather Forecast

Advertisements
Track Severe Weather on mobile